sensor_id;sensor_type;location;lat;lon;timestamp;P1;durP1;ratioP1;P2;durP2;ratioP2
74559;SDS011;63032;54.340;10.138;2022-09-16T00:00:20;3.67;;;1.23;;
74559;SDS011;63032;54.340;10.138;2022-09-16T00:02:46;3.22;;;1.02;;
74559;SDS011;63032;54.340;10.138;2022-09-16T00:05:12;3.45;;;1.13;;
74559;SDS011;63032;54.340;10.138;2022-09-16T00:07:38;4.22;;;0.85;;
74559;SDS011;63032;54.340;10.138;2022-09-16T00:10:04;4.18;;;1.20;;
74559;SDS011;63032;54.340;10.138;2022-09-16T00:12:30;3.65;;;1.23;;
74559;SDS011;63032;54.340;10.138;2022-09-16T00:14:56;6.40;;;1.10;;
74559;SDS011;63032;54.340;10.138;2022-09-16T00:17:22;4.55;;;0.85;;
74559;SDS011;63032;54.340;10.138;2022-09-16T00:19:48;9.20;;;1.23;;
74559;SDS011;63032;54.340;10.138;2022-09-16T00:22:15;3.47;;;0.85;;
74559;SDS011;63032;54.340;10.138;2022-09-16T00:24:43;6.30;;;1.05;;
74559;SDS011;63032;54.340;10.138;2022-09-16T00:27:09;4.30;;;0.75;;
74559;SDS011;63032;54.340;10.138;2022-09-16T00:29:35;3.45;;;0.77;;
74559;SDS011;63032;54.340;10.138;2022-09-16T00:32:01;4.45;;;0.90;;
74559;SDS011;63032;54.340;10.138;2022-09-16T00:34:27;2.92;;;0.90;;
74559;SDS011;63032;54.340;10.138;2022-09-16T00:36:53;2.90;;;1.15;;
74559;SDS011;63032;54.340;10.138;2022-09-16T00:39:18;4.75;;;0.93;;
74559;SDS011;63032;54.340;10.138;2022-09-16T00:41:44;4.97;;;1.13;;
74559;SDS011;63032;54.340;10.138;2022-09-16T00:47:13;3.28;;;1.10;;
74559;SDS011;63032;54.340;10.138;2022-09-16T00:49:42;1.70;;;0.60;;
74559;SDS011;63032;54.340;10.138;2022-09-16T00:52:07;3.72;;;1.10;;
74559;SDS011;63032;54.340;10.138;2022-09-16T00:54:34;3.70;;;0.93;;
74559;SDS011;63032;54.340;10.138;2022-09-16T00:57:01;3.67;;;1.02;;
74559;SDS011;63032;54.340;10.138;2022-09-16T00:59:30;6.38;;;1.30;;
74559;SDS011;63032;54.340;10.138;2022-09-16T01:02:01;5.78;;;1.10;;
74559;SDS011;63032;54.340;10.138;2022-09-16T01:04:34;2.97;;;0.90;;
74559;SDS011;63032;54.340;10.138;2022-09-16T01:07:29;5.25;;;1.42;;
74559;SDS011;63032;54.340;10.138;2022-09-16T01:10:03;6.57;;;0.98;;
74559;SDS011;63032;54.340;10.138;2022-09-16T01:12:30;2.33;;;0.65;;
74559;SDS011;63032;54.340;10.138;2022-09-16T01:14:57;3.97;;;1.00;;
74559;SDS011;63032;54.340;10.138;2022-09-16T01:31:33;4.82;;;1.05;;
74559;SDS011;63032;54.340;10.138;2022-09-16T01:45:25;5.07;;;1.00;;
74559;SDS011;63032;54.340;10.138;2022-09-16T01:51:01;4.95;;;0.93;;
74559;SDS011;63032;54.340;10.138;2022-09-16T01:56:27;6.38;;;0.80;;
74559;SDS011;63032;54.340;10.138;2022-09-16T01:59:03;4.38;;;1.05;;
74559;SDS011;63032;54.340;10.138;2022-09-16T02:01:38;4.35;;;1.25;;
74559;SDS011;63032;54.340;10.138;2022-09-16T02:04:12;9.23;;;1.20;;
74559;SDS011;63032;54.340;10.138;2022-09-16T02:06:41;4.53;;;1.05;;
74559;SDS011;63032;54.340;10.138;2022-09-16T02:09:12;6.82;;;1.70;;
74559;SDS011;63032;54.340;10.138;2022-09-16T02:11:42;7.00;;;1.33;;
74559;SDS011;63032;54.340;10.138;2022-09-16T02:14:18;6.28;;;1.35;;
74559;SDS011;63032;54.340;10.138;2022-09-16T02:16:53;6.18;;;1.45;;
74559;SDS011;63032;54.340;10.138;2022-09-16T02:19:26;3.97;;;0.90;;
74559;SDS011;63032;54.340;10.138;2022-09-16T02:21:58;10.83;;;1.47;;
74559;SDS011;63032;54.340;10.138;2022-09-16T02:24:32;8.45;;;1.70;;
74559;SDS011;63032;54.340;10.138;2022-09-16T02:27:03;7.88;;;1.50;;
74559;SDS011;63032;54.340;10.138;2022-09-16T02:29:51;2.50;;;1.10;;
74559;SDS011;63032;54.340;10.138;2022-09-16T02:32:21;6.03;;;1.52;;
74559;SDS011;63032;54.340;10.138;2022-09-16T02:34:50;7.82;;;1.50;;
74559;SDS011;63032;54.340;10.138;2022-09-16T02:37:23;3.20;;;0.70;;
74559;SDS011;63032;54.340;10.138;2022-09-16T02:39:56;8.20;;;1.63;;
74559;SDS011;63032;54.340;10.138;2022-09-16T02:42:26;6.18;;;1.45;;
74559;SDS011;63032;54.340;10.138;2022-09-16T02:44:53;5.70;;;1.30;;
74559;SDS011;63032;54.340;10.138;2022-09-16T02:47:28;3.13;;;0.90;;
74559;SDS011;63032;54.340;10.138;2022-09-16T02:50:18;5.28;;;1.30;;
74559;SDS011;63032;54.340;10.138;2022-09-16T02:53:09;5.43;;;1.45;;
74559;SDS011;63032;54.340;10.138;2022-09-16T02:56:34;9.05;;;1.52;;
74559;SDS011;63032;54.340;10.138;2022-09-16T02:58:45;5.60;;;1.17;;
74559;SDS011;63032;54.340;10.138;2022-09-16T03:01:11;7.13;;;1.25;;
74559;SDS011;63032;54.340;10.138;2022-09-16T03:03:38;8.98;;;1.35;;
74559;SDS011;63032;54.340;10.138;2022-09-16T03:08:33;5.72;;;1.30;;
74559;SDS011;63032;54.340;10.138;2022-09-16T03:11:02;9.82;;;1.50;;
74559;SDS011;63032;54.340;10.138;2022-09-16T03:13:47;4.18;;;1.17;;
74559;SDS011;63032;54.340;10.138;2022-09-16T03:16:51;9.18;;;1.60;;
74559;SDS011;63032;54.340;10.138;2022-09-16T03:19:27;7.38;;;1.35;;
74559;SDS011;63032;54.340;10.138;2022-09-16T03:22:16;12.05;;;1.90;;
74559;SDS011;63032;54.340;10.138;2022-09-16T03:27:24;4.20;;;1.27;;
74559;SDS011;63032;54.340;10.138;2022-09-16T03:30:07;10.38;;;1.65;;
74559;SDS011;63032;54.340;10.138;2022-09-16T03:32:42;5.88;;;1.40;;
74559;SDS011;63032;54.340;10.138;2022-09-16T03:35:28;3.85;;;1.40;;
74559;SDS011;63032;54.340;10.138;2022-09-16T03:37:57;4.68;;;1.67;;
74559;SDS011;63032;54.340;10.138;2022-09-16T03:40:25;7.93;;;1.52;;
74559;SDS011;63032;54.340;10.138;2022-09-16T03:42:53;5.65;;;1.73;;
74559;SDS011;63032;54.340;10.138;2022-09-16T03:45:21;7.50;;;1.52;;
74559;SDS011;63032;54.340;10.138;2022-09-16T03:47:48;7.85;;;1.38;;
74559;SDS011;63032;54.340;10.138;2022-09-16T03:50:18;8.88;;;1.38;;
74559;SDS011;63032;54.340;10.138;2022-09-16T03:52:45;3.42;;;1.30;;
74559;SDS011;63032;54.340;10.138;2022-09-16T03:55:11;7.75;;;2.33;;
74559;SDS011;63032;54.340;10.138;2022-09-16T03:57:37;9.15;;;1.92;;
74559;SDS011;63032;54.340;10.138;2022-09-16T04:00:03;6.90;;;1.45;;
74559;SDS011;63032;54.340;10.138;2022-09-16T04:02:33;6.05;;;0.98;;
74559;SDS011;63032;54.340;10.138;2022-09-16T04:04:59;8.60;;;1.73;;
74559;SDS011;63032;54.340;10.138;2022-09-16T04:07:25;13.55;;;1.77;;
74559;SDS011;63032;54.340;10.138;2022-09-16T04:09:51;5.65;;;1.80;;
74559;SDS011;63032;54.340;10.138;2022-09-16T04:12:16;5.53;;;1.00;;
74559;SDS011;63032;54.340;10.138;2022-09-16T04:14:42;10.55;;;1.75;;
74559;SDS011;63032;54.340;10.138;2022-09-16T04:17:07;9.48;;;1.75;;
74559;SDS011;63032;54.340;10.138;2022-09-16T04:19:33;10.40;;;2.25;;
74559;SDS011;63032;54.340;10.138;2022-09-16T04:21:59;5.32;;;1.40;;
74559;SDS011;63032;54.340;10.138;2022-09-16T04:24:25;11.32;;;1.73;;
74559;SDS011;63032;54.340;10.138;2022-09-16T04:26:50;6.40;;;1.20;;
74559;SDS011;63032;54.340;10.138;2022-09-16T04:29:16;4.28;;;1.70;;
74559;SDS011;63032;54.340;10.138;2022-09-16T04:31:42;5.55;;;1.08;;
74559;SDS011;63032;54.340;10.138;2022-09-16T04:34:08;3.03;;;1.33;;
74559;SDS011;63032;54.340;10.138;2022-09-16T04:36:36;7.15;;;1.02;;
74559;SDS011;63032;54.340;10.138;2022-09-16T04:39:02;5.15;;;1.60;;
74559;SDS011;63032;54.340;10.138;2022-09-16T04:41:28;7.28;;;1.58;;
74559;SDS011;63032;54.340;10.138;2022-09-16T04:43:57;6.90;;;1.58;;
74559;SDS011;63032;54.340;10.138;2022-09-16T04:46:24;4.05;;;1.30;;
74559;SDS011;63032;54.340;10.138;2022-09-16T04:48:52;6.35;;;1.65;;
74559;SDS011;63032;54.340;10.138;2022-09-16T04:51:18;6.43;;;1.42;;
74559;SDS011;63032;54.340;10.138;2022-09-16T04:53:46;8.82;;;1.55;;
74559;SDS011;63032;54.340;10.138;2022-09-16T04:56:14;9.40;;;1.27;;
74559;SDS011;63032;54.340;10.138;2022-09-16T04:58:41;10.18;;;1.70;;
74559;SDS011;63032;54.340;10.138;2022-09-16T05:01:08;6.40;;;1.67;;
74559;SDS011;63032;54.340;10.138;2022-09-16T05:03:37;9.82;;;1.88;;
74559;SDS011;63032;54.340;10.138;2022-09-16T05:06:07;5.25;;;1.10;;
74559;SDS011;63032;54.340;10.138;2022-09-16T05:08:34;6.95;;;1.85;;
74559;SDS011;63032;54.340;10.138;2022-09-16T05:11:07;6.90;;;1.20;;
74559;SDS011;63032;54.340;10.138;2022-09-16T05:13:37;7.63;;;1.63;;
74559;SDS011;63032;54.340;10.138;2022-09-16T05:16:10;7.70;;;1.10;;
74559;SDS011;63032;54.340;10.138;2022-09-16T05:18:38;3.28;;;1.10;;
74559;SDS011;63032;54.340;10.138;2022-09-16T05:21:05;9.55;;;1.35;;
74559;SDS011;63032;54.340;10.138;2022-09-16T05:23:33;11.38;;;2.22;;
74559;SDS011;63032;54.340;10.138;2022-09-16T05:26:02;5.43;;;2.20;;
74559;SDS011;63032;54.340;10.138;2022-09-16T05:28:30;7.85;;;1.55;;
74559;SDS011;63032;54.340;10.138;2022-09-16T05:31:13;8.10;;;1.48;;
74559;SDS011;63032;54.340;10.138;2022-09-16T05:33:44;7.25;;;2.00;;
74559;SDS011;63032;54.340;10.138;2022-09-16T05:36:16;7.00;;;1.17;;
74559;SDS011;63032;54.340;10.138;2022-09-16T05:38:42;7.55;;;1.67;;
74559;SDS011;63032;54.340;10.138;2022-09-16T05:41:08;7.60;;;1.63;;
74559;SDS011;63032;54.340;10.138;2022-09-16T05:43:34;9.50;;;1.25;;
74559;SDS011;63032;54.340;10.138;2022-09-16T05:46:01;8.07;;;1.65;;
74559;SDS011;63032;54.340;10.138;2022-09-16T05:48:28;13.38;;;1.58;;
74559;SDS011;63032;54.340;10.138;2022-09-16T05:51:01;7.40;;;1.38;;
74559;SDS011;63032;54.340;10.138;2022-09-16T05:53:31;9.32;;;1.70;;
74559;SDS011;63032;54.340;10.138;2022-09-16T05:58:32;8.55;;;1.50;;
74559;SDS011;63032;54.340;10.138;2022-09-16T06:03:25;12.55;;;2.30;;
74559;SDS011;63032;54.340;10.138;2022-09-16T06:05:51;16.23;;;2.33;;
74559;SDS011;63032;54.340;10.138;2022-09-16T06:08:22;8.77;;;1.25;;
74559;SDS011;63032;54.340;10.138;2022-09-16T06:10:48;11.60;;;2.35;;
74559;SDS011;63032;54.340;10.138;2022-09-16T06:13:14;12.20;;;2.05;;
74559;SDS011;63032;54.340;10.138;2022-09-16T06:15:46;13.93;;;1.98;;
74559;SDS011;63032;54.340;10.138;2022-09-16T06:18:13;8.57;;;1.92;;
74559;SDS011;63032;54.340;10.138;2022-09-16T06:20:40;5.22;;;1.48;;
74559;SDS011;63032;54.340;10.138;2022-09-16T06:23:05;9.20;;;1.58;;
74559;SDS011;63032;54.340;10.138;2022-09-16T06:25:31;9.93;;;2.20;;
74559;SDS011;63032;54.340;10.138;2022-09-16T06:27:58;5.32;;;1.20;;
74559;SDS011;63032;54.340;10.138;2022-09-16T06:30:23;8.98;;;1.95;;
74559;SDS011;63032;54.340;10.138;2022-09-16T06:32:49;4.22;;;1.52;;
74559;SDS011;63032;54.340;10.138;2022-09-16T06:35:15;8.07;;;1.70;;
74559;SDS011;63032;54.340;10.138;2022-09-16T06:37:41;10.50;;;1.60;;
74559;SDS011;63032;54.340;10.138;2022-09-16T06:40:06;10.40;;;1.90;;
74559;SDS011;63032;54.340;10.138;2022-09-16T06:42:32;9.05;;;2.03;;
74559;SDS011;63032;54.340;10.138;2022-09-16T06:44:58;8.82;;;1.92;;
74559;SDS011;63032;54.340;10.138;2022-09-16T06:47:24;12.50;;;2.00;;
74559;SDS011;63032;54.340;10.138;2022-09-16T06:49:49;7.28;;;2.00;;
74559;SDS011;63032;54.340;10.138;2022-09-16T06:52:17;8.63;;;1.63;;
74559;SDS011;63032;54.340;10.138;2022-09-16T06:54:43;7.72;;;1.75;;
74559;SDS011;63032;54.340;10.138;2022-09-16T06:57:11;3.95;;;1.27;;
74559;SDS011;63032;54.340;10.138;2022-09-16T06:59:37;7.22;;;2.10;;
74559;SDS011;63032;54.340;10.138;2022-09-16T07:02:02;6.20;;;2.00;;
74559;SDS011;63032;54.340;10.138;2022-09-16T07:04:28;4.30;;;1.30;;
74559;SDS011;63032;54.340;10.138;2022-09-16T07:06:54;5.05;;;1.42;;
74559;SDS011;63032;54.340;10.138;2022-09-16T07:09:22;4.40;;;1.40;;
74559;SDS011;63032;54.340;10.138;2022-09-16T07:11:48;6.45;;;1.70;;
74559;SDS011;63032;54.340;10.138;2022-09-16T07:14:14;7.53;;;1.50;;
74559;SDS011;63032;54.340;10.138;2022-09-16T07:16:39;6.93;;;1.65;;
74559;SDS011;63032;54.340;10.138;2022-09-16T07:19:05;10.57;;;1.70;;
74559;SDS011;63032;54.340;10.138;2022-09-16T07:21:31;9.95;;;1.65;;
74559;SDS011;63032;54.340;10.138;2022-09-16T07:23:58;5.13;;;1.17;;
74559;SDS011;63032;54.340;10.138;2022-09-16T07:26:25;10.50;;;1.95;;
74559;SDS011;63032;54.340;10.138;2022-09-16T07:28:57;7.63;;;1.80;;
74559;SDS011;63032;54.340;10.138;2022-09-16T07:31:25;7.65;;;1.73;;
74559;SDS011;63032;54.340;10.138;2022-09-16T07:33:54;9.77;;;1.75;;
74559;SDS011;63032;54.340;10.138;2022-09-16T07:36:22;5.75;;;1.67;;
74559;SDS011;63032;54.340;10.138;2022-09-16T07:38:50;8.65;;;1.80;;
74559;SDS011;63032;54.340;10.138;2022-09-16T07:43:46;7.07;;;1.77;;
74559;SDS011;63032;54.340;10.138;2022-09-16T07:46:13;6.35;;;1.38;;
74559;SDS011;63032;54.340;10.138;2022-09-16T07:48:43;6.35;;;1.85;;
74559;SDS011;63032;54.340;10.138;2022-09-16T07:51:12;14.63;;;2.53;;
74559;SDS011;63032;54.340;10.138;2022-09-16T07:53:41;5.70;;;1.55;;
74559;SDS011;63032;54.340;10.138;2022-09-16T07:56:17;9.98;;;1.60;;
74559;SDS011;63032;54.340;10.138;2022-09-16T07:58:45;9.90;;;1.83;;
74559;SDS011;63032;54.340;10.138;2022-09-16T08:01:12;6.95;;;1.77;;
74559;SDS011;63032;54.340;10.138;2022-09-16T08:03:40;9.90;;;1.67;;
74559;SDS011;63032;54.340;10.138;2022-09-16T08:06:08;9.07;;;2.10;;
74559;SDS011;63032;54.340;10.138;2022-09-16T08:08:37;14.00;;;1.80;;
74559;SDS011;63032;54.340;10.138;2022-09-16T08:11:03;8.65;;;2.03;;
74559;SDS011;63032;54.340;10.138;2022-09-16T08:13:30;4.90;;;1.40;;
74559;SDS011;63032;54.340;10.138;2022-09-16T08:16:00;10.70;;;1.65;;
74559;SDS011;63032;54.340;10.138;2022-09-16T08:18:29;4.15;;;1.13;;
74559;SDS011;63032;54.340;10.138;2022-09-16T08:20:55;6.85;;;2.15;;
74559;SDS011;63032;54.340;10.138;2022-09-16T08:23:21;7.30;;;1.73;;
74559;SDS011;63032;54.340;10.138;2022-09-16T08:25:54;14.27;;;2.38;;
74559;SDS011;63032;54.340;10.138;2022-09-16T08:28:22;7.32;;;1.80;;
74559;SDS011;63032;54.340;10.138;2022-09-16T08:30:48;7.13;;;1.77;;
74559;SDS011;63032;54.340;10.138;2022-09-16T08:33:13;5.22;;;1.25;;
74559;SDS011;63032;54.340;10.138;2022-09-16T08:35:45;8.25;;;1.77;;
74559;SDS011;63032;54.340;10.138;2022-09-16T08:38:12;8.32;;;1.90;;
74559;SDS011;63032;54.340;10.138;2022-09-16T08:40:42;10.55;;;1.85;;
74559;SDS011;63032;54.340;10.138;2022-09-16T08:43:12;7.38;;;1.48;;
74559;SDS011;63032;54.340;10.138;2022-09-16T08:45:55;8.60;;;1.30;;
74559;SDS011;63032;54.340;10.138;2022-09-16T08:48:37;9.30;;;1.55;;
74559;SDS011;63032;54.340;10.138;2022-09-16T08:51:14;7.07;;;1.38;;
74559;SDS011;63032;54.340;10.138;2022-09-16T08:53:44;7.75;;;1.35;;
74559;SDS011;63032;54.340;10.138;2022-09-16T08:56:15;3.42;;;1.00;;
74559;SDS011;63032;54.340;10.138;2022-09-16T08:58:46;7.15;;;1.65;;
74559;SDS011;63032;54.340;10.138;2022-09-16T09:01:22;8.35;;;1.55;;
74559;SDS011;63032;54.340;10.138;2022-09-16T09:04:05;11.23;;;2.58;;
74559;SDS011;63032;54.340;10.138;2022-09-16T09:09:55;7.18;;;1.77;;
74559;SDS011;63032;54.340;10.138;2022-09-16T09:12:38;15.20;;;2.00;;
74559;SDS011;63032;54.340;10.138;2022-09-16T09:20:43;12.25;;;1.98;;
74559;SDS011;63032;54.340;10.138;2022-09-16T09:26:25;10.85;;;1.77;;
74559;SDS011;63032;54.340;10.138;2022-09-16T09:29:25;10.00;;;1.80;;
74559;SDS011;63032;54.340;10.138;2022-09-16T09:45:27;11.75;;;1.90;;
74559;SDS011;63032;54.340;10.138;2022-09-16T09:55:38;12.40;;;2.42;;
74559;SDS011;63032;54.340;10.138;2022-09-16T10:00:58;10.32;;;2.35;;
74559;SDS011;63032;54.340;10.138;2022-09-16T10:03:25;17.52;;;2.65;;
74559;SDS011;63032;54.340;10.138;2022-09-16T10:05:52;7.47;;;2.45;;
74559;SDS011;63032;54.340;10.138;2022-09-16T10:10:51;10.98;;;2.60;;
74559;SDS011;63032;54.340;10.138;2022-09-16T10:13:22;14.98;;;2.55;;
74559;SDS011;63032;54.340;10.138;2022-09-16T10:15:53;12.05;;;2.45;;
74559;SDS011;63032;54.340;10.138;2022-09-16T10:18:31;12.40;;;2.47;;
74559;SDS011;63032;54.340;10.138;2022-09-16T10:21:10;10.98;;;2.17;;
74559;SDS011;63032;54.340;10.138;2022-09-16T10:23:39;13.18;;;1.55;;
74559;SDS011;63032;54.340;10.138;2022-09-16T10:31:22;8.13;;;1.95;;
74559;SDS011;63032;54.340;10.138;2022-09-16T10:33:49;4.30;;;1.60;;
74559;SDS011;63032;54.340;10.138;2022-09-16T10:36:21;9.48;;;2.10;;
74559;SDS011;63032;54.340;10.138;2022-09-16T10:38:54;7.90;;;1.90;;
74559;SDS011;63032;54.340;10.138;2022-09-16T10:41:25;7.53;;;2.35;;
74559;SDS011;63032;54.340;10.138;2022-09-16T10:46:23;7.82;;;1.42;;
74559;SDS011;63032;54.340;10.138;2022-09-16T10:48:49;5.57;;;1.40;;
74559;SDS011;63032;54.340;10.138;2022-09-16T10:51:27;7.38;;;1.67;;
74559;SDS011;63032;54.340;10.138;2022-09-16T10:53:59;4.55;;;1.25;;
74559;SDS011;63032;54.340;10.138;2022-09-16T10:56:26;10.18;;;2.28;;
74559;SDS011;63032;54.340;10.138;2022-09-16T10:59:10;6.65;;;1.45;;
74559;SDS011;63032;54.340;10.138;2022-09-16T11:07:29;5.80;;;1.20;;
74559;SDS011;63032;54.340;10.138;2022-09-16T11:10:19;5.07;;;1.10;;
74559;SDS011;63032;54.340;10.138;2022-09-16T11:32:07;2.75;;;0.75;;
74559;SDS011;63032;54.340;10.138;2022-09-16T11:37:26;5.13;;;1.13;;
74559;SDS011;63032;54.340;10.138;2022-09-16T11:56:02;2.80;;;0.80;;
74559;SDS011;63032;54.340;10.138;2022-09-16T12:03:48;3.50;;;0.68;;
74559;SDS011;63032;54.340;10.138;2022-09-16T12:06:24;3.33;;;0.90;;
74559;SDS011;63032;54.340;10.138;2022-09-16T12:11:34;3.80;;;1.27;;
74559;SDS011;63032;54.340;10.138;2022-09-16T12:14:23;2.75;;;0.90;;
74559;SDS011;63032;54.340;10.138;2022-09-16T12:16:57;4.72;;;0.98;;
74559;SDS011;63032;54.340;10.138;2022-09-16T12:19:32;3.30;;;1.00;;
74559;SDS011;63032;54.340;10.138;2022-09-16T12:22:27;2.55;;;0.75;;
74559;SDS011;63032;54.340;10.138;2022-09-16T12:30:24;6.68;;;1.08;;
74559;SDS011;63032;54.340;10.138;2022-09-16T12:35:40;6.38;;;1.42;;
74559;SDS011;63032;54.340;10.138;2022-09-16T12:38:17;7.93;;;1.75;;
74559;SDS011;63032;54.340;10.138;2022-09-16T12:52:28;8.68;;;1.23;;
74559;SDS011;63032;54.340;10.138;2022-09-16T13:00:51;6.60;;;1.45;;
74559;SDS011;63032;54.340;10.138;2022-09-16T13:03:31;6.55;;;1.60;;
74559;SDS011;63032;54.340;10.138;2022-09-16T13:06:02;5.68;;;1.30;;
74559;SDS011;63032;54.340;10.138;2022-09-16T13:08:39;10.25;;;1.50;;
74559;SDS011;63032;54.340;10.138;2022-09-16T13:11:06;11.27;;;1.40;;
74559;SDS011;63032;54.340;10.138;2022-09-16T13:13:45;6.35;;;1.15;;
74559;SDS011;63032;54.340;10.138;2022-09-16T13:16:13;7.60;;;1.35;;
74559;SDS011;63032;54.340;10.138;2022-09-16T13:18:50;6.18;;;1.52;;
74559;SDS011;63032;54.340;10.138;2022-09-16T13:21:30;6.25;;;1.67;;
74559;SDS011;63032;54.340;10.138;2022-09-16T13:32:44;5.03;;;1.05;;
74559;SDS011;63032;54.340;10.138;2022-09-16T13:35:41;4.93;;;1.17;;
74559;SDS011;63032;54.340;10.138;2022-09-16T13:43:57;4.55;;;1.02;;
74559;SDS011;63032;54.340;10.138;2022-09-16T13:46:28;3.00;;;1.00;;
74559;SDS011;63032;54.340;10.138;2022-09-16T13:51:28;8.35;;;1.30;;
74559;SDS011;63032;54.340;10.138;2022-09-16T13:54:02;4.05;;;1.65;;
74559;SDS011;63032;54.340;10.138;2022-09-16T13:59:22;8.35;;;1.48;;
74559;SDS011;63032;54.340;10.138;2022-09-16T14:15:40;6.03;;;1.42;;
74559;SDS011;63032;54.340;10.138;2022-09-16T14:18:14;8.15;;;1.50;;
74559;SDS011;63032;54.340;10.138;2022-09-16T14:20:51;5.32;;;1.17;;
74559;SDS011;63032;54.340;10.138;2022-09-16T14:23:23;6.97;;;1.80;;
74559;SDS011;63032;54.340;10.138;2022-09-16T14:25:50;3.95;;;1.10;;
74559;SDS011;63032;54.340;10.138;2022-09-16T14:30:56;7.60;;;1.10;;
74559;SDS011;63032;54.340;10.138;2022-09-16T14:33:34;4.35;;;1.70;;
74559;SDS011;63032;54.340;10.138;2022-09-16T14:36:13;5.63;;;1.50;;
74559;SDS011;63032;54.340;10.138;2022-09-16T14:38:54;5.75;;;1.30;;
74559;SDS011;63032;54.340;10.138;2022-09-16T14:41:34;6.35;;;1.20;;
74559;SDS011;63032;54.340;10.138;2022-09-16T14:46:47;4.28;;;0.90;;
74559;SDS011;63032;54.340;10.138;2022-09-16T14:49:14;6.38;;;1.45;;
74559;SDS011;63032;54.340;10.138;2022-09-16T14:51:42;6.53;;;1.63;;
74559;SDS011;63032;54.340;10.138;2022-09-16T14:54:20;5.00;;;1.50;;
74559;SDS011;63032;54.340;10.138;2022-09-16T14:56:53;7.68;;;1.60;;
74559;SDS011;63032;54.340;10.138;2022-09-16T14:59:21;5.40;;;1.30;;
74559;SDS011;63032;54.340;10.138;2022-09-16T15:04:49;8.02;;;1.70;;
74559;SDS011;63032;54.340;10.138;2022-09-16T15:07:22;7.13;;;1.70;;
74559;SDS011;63032;54.340;10.138;2022-09-16T15:12:45;4.03;;;1.30;;
74559;SDS011;63032;54.340;10.138;2022-09-16T15:15:19;8.30;;;1.90;;
74559;SDS011;63032;54.340;10.138;2022-09-16T15:17:53;4.82;;;1.40;;
74559;SDS011;63032;54.340;10.138;2022-09-16T15:20:23;5.55;;;1.30;;
74559;SDS011;63032;54.340;10.138;2022-09-16T15:22:51;5.57;;;1.20;;
74559;SDS011;63032;54.340;10.138;2022-09-16T15:25:24;5.90;;;1.20;;
74559;SDS011;63032;54.340;10.138;2022-09-16T15:28:02;6.85;;;1.25;;
74559;SDS011;63032;54.340;10.138;2022-09-16T15:30:52;6.22;;;1.40;;
74559;SDS011;63032;54.340;10.138;2022-09-16T15:35:48;7.07;;;1.30;;
74559;SDS011;63032;54.340;10.138;2022-09-16T15:38:19;6.88;;;1.73;;
74559;SDS011;63032;54.340;10.138;2022-09-16T15:40:59;4.57;;;1.23;;
74559;SDS011;63032;54.340;10.138;2022-09-16T15:43:32;4.07;;;1.10;;
74559;SDS011;63032;54.340;10.138;2022-09-16T15:48:33;5.65;;;1.70;;
74559;SDS011;63032;54.340;10.138;2022-09-16T15:51:02;3.05;;;1.17;;
74559;SDS011;63032;54.340;10.138;2022-09-16T15:56:01;7.70;;;1.42;;
74559;SDS011;63032;54.340;10.138;2022-09-16T16:03:27;4.25;;;1.35;;
74559;SDS011;63032;54.340;10.138;2022-09-16T16:05:57;8.95;;;1.88;;
74559;SDS011;63032;54.340;10.138;2022-09-16T16:11:22;3.50;;;1.13;;
74559;SDS011;63032;54.340;10.138;2022-09-16T16:13:48;7.60;;;1.67;;
74559;SDS011;63032;54.340;10.138;2022-09-16T16:16:17;4.13;;;1.50;;
74559;SDS011;63032;54.340;10.138;2022-09-16T16:18:46;5.88;;;1.80;;
74559;SDS011;63032;54.340;10.138;2022-09-16T16:21:13;2.95;;;1.08;;
74559;SDS011;63032;54.340;10.138;2022-09-16T16:23:40;4.50;;;1.10;;
74559;SDS011;63032;54.340;10.138;2022-09-16T16:26:06;5.63;;;1.35;;
74559;SDS011;63032;54.340;10.138;2022-09-16T16:28:33;6.03;;;1.48;;
74559;SDS011;63032;54.340;10.138;2022-09-16T16:31:13;7.90;;;1.50;;
74559;SDS011;63032;54.340;10.138;2022-09-16T16:33:42;5.28;;;1.25;;
74559;SDS011;63032;54.340;10.138;2022-09-16T16:36:09;6.50;;;1.30;;
74559;SDS011;63032;54.340;10.138;2022-09-16T16:38:38;3.80;;;0.98;;
74559;SDS011;63032;54.340;10.138;2022-09-16T16:41:04;9.80;;;1.50;;
74559;SDS011;63032;54.340;10.138;2022-09-16T16:43:31;5.47;;;1.27;;
74559;SDS011;63032;54.340;10.138;2022-09-16T16:45:57;3.40;;;1.40;;
74559;SDS011;63032;54.340;10.138;2022-09-16T16:48:23;3.45;;;1.00;;
74559;SDS011;63032;54.340;10.138;2022-09-16T16:51:00;7.47;;;1.65;;
74559;SDS011;63032;54.340;10.138;2022-09-16T16:53:29;7.30;;;1.38;;
74559;SDS011;63032;54.340;10.138;2022-09-16T16:56:04;3.67;;;1.20;;
74559;SDS011;63032;54.340;10.138;2022-09-16T16:58:33;6.13;;;1.10;;
74559;SDS011;63032;54.340;10.138;2022-09-16T17:03:37;3.42;;;0.93;;
74559;SDS011;63032;54.340;10.138;2022-09-16T17:06:04;3.58;;;1.55;;
74559;SDS011;63032;54.340;10.138;2022-09-16T17:08:34;2.47;;;1.10;;
74559;SDS011;63032;54.340;10.138;2022-09-16T17:13:42;4.95;;;1.60;;
74559;SDS011;63032;54.340;10.138;2022-09-16T17:16:11;5.90;;;1.27;;
74559;SDS011;63032;54.340;10.138;2022-09-16T17:18:38;2.83;;;1.13;;
74559;SDS011;63032;54.340;10.138;2022-09-16T17:21:19;2.40;;;1.10;;
74559;SDS011;63032;54.340;10.138;2022-09-16T17:23:49;3.72;;;1.20;;
74559;SDS011;63032;54.340;10.138;2022-09-16T17:26:15;3.30;;;1.00;;
74559;SDS011;63032;54.340;10.138;2022-09-16T17:28:42;3.35;;;1.38;;
74559;SDS011;63032;54.340;10.138;2022-09-16T17:31:14;2.47;;;0.80;;
74559;SDS011;63032;54.340;10.138;2022-09-16T17:33:49;5.78;;;1.10;;
74559;SDS011;63032;54.340;10.138;2022-09-16T17:36:18;4.03;;;1.58;;
74559;SDS011;63032;54.340;10.138;2022-09-16T17:38:46;5.38;;;1.45;;
74559;SDS011;63032;54.340;10.138;2022-09-16T17:41:13;6.38;;;1.67;;
74559;SDS011;63032;54.340;10.138;2022-09-16T17:43:41;3.42;;;1.10;;
74559;SDS011;63032;54.340;10.138;2022-09-16T17:46:14;6.47;;;1.30;;
74559;SDS011;63032;54.340;10.138;2022-09-16T17:48:42;4.55;;;1.20;;
74559;SDS011;63032;54.340;10.138;2022-09-16T17:51:08;6.07;;;1.58;;
74559;SDS011;63032;54.340;10.138;2022-09-16T17:53:34;11.60;;;2.10;;
74559;SDS011;63032;54.340;10.138;2022-09-16T17:56:06;6.00;;;3.38;;
74559;SDS011;63032;54.340;10.138;2022-09-16T17:58:37;6.65;;;5.70;;
74559;SDS011;63032;54.340;10.138;2022-09-16T18:01:08;12.60;;;5.65;;
74559;SDS011;63032;54.340;10.138;2022-09-16T18:03:35;8.77;;;5.15;;
74559;SDS011;63032;54.340;10.138;2022-09-16T18:06:03;11.63;;;7.95;;
74559;SDS011;63032;54.340;10.138;2022-09-16T18:08:31;9.13;;;7.07;;
74559;SDS011;63032;54.340;10.138;2022-09-16T18:10:56;9.40;;;7.10;;
74559;SDS011;63032;54.340;10.138;2022-09-16T18:13:22;13.38;;;8.75;;
74559;SDS011;63032;54.340;10.138;2022-09-16T18:15:48;12.07;;;8.35;;
74559;SDS011;63032;54.340;10.138;2022-09-16T18:18:13;12.73;;;8.32;;
74559;SDS011;63032;54.340;10.138;2022-09-16T18:20:49;12.75;;;8.95;;
74559;SDS011;63032;54.340;10.138;2022-09-16T18:23:18;11.57;;;7.35;;
74559;SDS011;63032;54.340;10.138;2022-09-16T18:25:47;13.65;;;7.18;;
74559;SDS011;63032;54.340;10.138;2022-09-16T18:28:13;9.43;;;7.22;;
74559;SDS011;63032;54.340;10.138;2022-09-16T18:30:40;8.65;;;6.38;;
74559;SDS011;63032;54.340;10.138;2022-09-16T18:33:05;11.88;;;7.45;;
74559;SDS011;63032;54.340;10.138;2022-09-16T18:35:33;11.55;;;5.93;;
74559;SDS011;63032;54.340;10.138;2022-09-16T18:38:01;7.32;;;5.70;;
74559;SDS011;63032;54.340;10.138;2022-09-16T18:40:28;7.68;;;5.95;;
74559;SDS011;63032;54.340;10.138;2022-09-16T18:42:54;7.78;;;5.00;;
74559;SDS011;63032;54.340;10.138;2022-09-16T18:45:19;6.38;;;4.85;;
74559;SDS011;63032;54.340;10.138;2022-09-16T18:47:45;8.02;;;5.43;;